sensor_id;sensor_type;location;lat;lon;timestamp;temperature;humidity
81630;DHT22;71039;49.500;10.418;2023-12-20T00:00:15;8.10;67.50
81630;DHT22;71039;49.500;10.418;2023-12-20T00:02:40;8.10;67.50
81630;DHT22;71039;49.500;10.418;2023-12-20T00:05:06;8.10;67.50
81630;DHT22;71039;49.500;10.418;2023-12-20T00:07:32;8.10;67.60
81630;DHT22;71039;49.500;10.418;2023-12-20T00:09:57;8.10;67.70
81630;DHT22;71039;49.500;10.418;2023-12-20T00:12:23;8.10;67.80
81630;DHT22;71039;49.500;10.418;2023-12-20T00:14:48;8.00;67.80
81630;DHT22;71039;49.500;10.418;2023-12-20T00:17:14;8.00;67.70
81630;DHT22;71039;49.500;10.418;2023-12-20T00:19:40;8.00;67.70
81630;DHT22;71039;49.500;10.418;2023-12-20T00:22:05;8.00;67.70
81630;DHT22;71039;49.500;10.418;2023-12-20T00:24:31;8.00;67.70
81630;DHT22;71039;49.500;10.418;2023-12-20T00:26:56;8.00;67.70
81630;DHT22;71039;49.500;10.418;2023-12-20T00:29:22;8.00;67.70
81630;DHT22;71039;49.500;10.418;2023-12-20T00:31:47;8.00;67.90
81630;DHT22;71039;49.500;10.418;2023-12-20T00:34:13;8.00;67.90
81630;DHT22;71039;49.500;10.418;2023-12-20T00:36:38;8.00;67.90
81630;DHT22;71039;49.500;10.418;2023-12-20T00:39:04;8.00;67.90
81630;DHT22;71039;49.500;10.418;2023-12-20T00:41:29;8.00;67.80
81630;DHT22;71039;49.500;10.418;2023-12-20T00:43:55;8.00;67.80
81630;DHT22;71039;49.500;10.418;2023-12-20T00:46:20;8.00;67.90
81630;DHT22;71039;49.500;10.418;2023-12-20T00:48:46;8.00;67.90
81630;DHT22;71039;49.500;10.418;2023-12-20T00:51:11;8.00;67.90
81630;DHT22;71039;49.500;10.418;2023-12-20T00:53:37;8.00;67.90
81630;DHT22;71039;49.500;10.418;2023-12-20T00:56:02;7.90;68.00
81630;DHT22;71039;49.500;10.418;2023-12-20T00:58:28;7.90;68.00
81630;DHT22;71039;49.500;10.418;2023-12-20T01:00:53;7.90;68.00
81630;DHT22;71039;49.500;10.418;2023-12-20T01:03:19;7.90;68.00
81630;DHT22;71039;49.500;10.418;2023-12-20T01:05:45;7.90;68.10
81630;DHT22;71039;49.500;10.418;2023-12-20T01:08:10;7.90;68.10
81630;DHT22;71039;49.500;10.418;2023-12-20T01:10:36;7.90;68.10
81630;DHT22;71039;49.500;10.418;2023-12-20T01:13:01;7.80;68.20
81630;DHT22;71039;49.500;10.418;2023-12-20T01:15:27;7.90;68.20
81630;DHT22;71039;49.500;10.418;2023-12-20T01:17:52;7.80;68.20
81630;DHT22;71039;49.500;10.418;2023-12-20T01:20:18;7.80;68.30
81630;DHT22;71039;49.500;10.418;2023-12-20T01:22:43;7.80;68.30
81630;DHT22;71039;49.500;10.418;2023-12-20T01:25:09;7.80;68.30
81630;DHT22;71039;49.500;10.418;2023-12-20T01:27:34;7.80;68.20
81630;DHT22;71039;49.500;10.418;2023-12-20T01:30:00;7.80;68.20
81630;DHT22;71039;49.500;10.418;2023-12-20T01:32:25;7.80;68.20
81630;DHT22;71039;49.500;10.418;2023-12-20T01:34:51;7.80;68.20
81630;DHT22;71039;49.500;10.418;2023-12-20T01:37:16;7.80;68.20
81630;DHT22;71039;49.500;10.418;2023-12-20T01:39:42;7.80;68.30
81630;DHT22;71039;49.500;10.418;2023-12-20T01:42:07;7.80;68.30
81630;DHT22;71039;49.500;10.418;2023-12-20T01:44:33;7.80;68.30
81630;DHT22;71039;49.500;10.418;2023-12-20T01:46:58;7.80;68.30
81630;DHT22;71039;49.500;10.418;2023-12-20T01:49:24;7.80;68.30
81630;DHT22;71039;49.500;10.418;2023-12-20T01:51:50;7.80;68.30
81630;DHT22;71039;49.500;10.418;2023-12-20T01:54:16;7.80;68.30
81630;DHT22;71039;49.500;10.418;2023-12-20T01:56:42;7.80;68.30
81630;DHT22;71039;49.500;10.418;2023-12-20T01:59:08;7.80;68.30
81630;DHT22;71039;49.500;10.418;2023-12-20T02:01:34;7.70;68.20
81630;DHT22;71039;49.500;10.418;2023-12-20T02:04:00;7.70;68.20
81630;DHT22;71039;49.500;10.418;2023-12-20T02:06:29;7.70;68.20
81630;DHT22;71039;49.500;10.418;2023-12-20T02:08:55;7.70;68.20
81630;DHT22;71039;49.500;10.418;2023-12-20T02:11:21;7.70;68.20
81630;DHT22;71039;49.500;10.418;2023-12-20T02:13:46;7.60;68.20
81630;DHT22;71039;49.500;10.418;2023-12-20T02:16:12;7.60;68.20
81630;DHT22;71039;49.500;10.418;2023-12-20T02:18:38;7.60;68.20
81630;DHT22;71039;49.500;10.418;2023-12-20T02:21:05;7.60;68.20
81630;DHT22;71039;49.500;10.418;2023-12-20T02:23:30;7.60;68.20
81630;DHT22;71039;49.500;10.418;2023-12-20T02:25:56;7.50;68.20
81630;DHT22;71039;49.500;10.418;2023-12-20T02:28:21;7.50;68.30
81630;DHT22;71039;49.500;10.418;2023-12-20T02:30:47;7.50;68.30
81630;DHT22;71039;49.500;10.418;2023-12-20T02:33:14;7.50;68.20
81630;DHT22;71039;49.500;10.418;2023-12-20T02:35:40;7.50;68.20
81630;DHT22;71039;49.500;10.418;2023-12-20T02:38:06;7.50;68.30
81630;DHT22;71039;49.500;10.418;2023-12-20T02:40:32;7.50;68.30
81630;DHT22;71039;49.500;10.418;2023-12-20T02:42:57;7.50;68.40
81630;DHT22;71039;49.500;10.418;2023-12-20T02:45:23;7.50;68.40
81630;DHT22;71039;49.500;10.418;2023-12-20T02:47:48;7.40;68.40
81630;DHT22;71039;49.500;10.418;2023-12-20T02:50:14;7.40;68.40
81630;DHT22;71039;49.500;10.418;2023-12-20T02:52:39;7.40;68.50
81630;DHT22;71039;49.500;10.418;2023-12-20T02:55:05;7.40;68.50
81630;DHT22;71039;49.500;10.418;2023-12-20T02:57:30;7.40;68.50
81630;DHT22;71039;49.500;10.418;2023-12-20T02:59:56;7.40;68.50
81630;DHT22;71039;49.500;10.418;2023-12-20T03:02:21;7.40;68.60
81630;DHT22;71039;49.500;10.418;2023-12-20T03:04:47;7.40;68.60
81630;DHT22;71039;49.500;10.418;2023-12-20T03:07:12;7.40;68.70
81630;DHT22;71039;49.500;10.418;2023-12-20T03:09:38;7.30;68.70
81630;DHT22;71039;49.500;10.418;2023-12-20T03:12:04;7.40;68.70
81630;DHT22;71039;49.500;10.418;2023-12-20T03:14:29;7.40;68.70
81630;DHT22;71039;49.500;10.418;2023-12-20T03:16:55;7.40;68.60
81630;DHT22;71039;49.500;10.418;2023-12-20T03:19:20;7.30;68.70
81630;DHT22;71039;49.500;10.418;2023-12-20T03:21:46;7.30;68.70
81630;DHT22;71039;49.500;10.418;2023-12-20T03:24:11;7.30;68.60
81630;DHT22;71039;49.500;10.418;2023-12-20T03:26:37;7.30;68.70
81630;DHT22;71039;49.500;10.418;2023-12-20T03:29:02;7.30;68.70
81630;DHT22;71039;49.500;10.418;2023-12-20T03:31:28;7.30;68.70
81630;DHT22;71039;49.500;10.418;2023-12-20T03:33:53;7.30;68.70
81630;DHT22;71039;49.500;10.418;2023-12-20T03:36:19;7.20;68.70
81630;DHT22;71039;49.500;10.418;2023-12-20T03:38:45;7.30;68.70
81630;DHT22;71039;49.500;10.418;2023-12-20T03:41:11;7.30;68.70
81630;DHT22;71039;49.500;10.418;2023-12-20T03:43:36;7.20;68.70
81630;DHT22;71039;49.500;10.418;2023-12-20T03:46:03;7.20;68.70
81630;DHT22;71039;49.500;10.418;2023-12-20T03:48:29;7.20;68.70
81630;DHT22;71039;49.500;10.418;2023-12-20T03:50:54;7.20;68.70
81630;DHT22;71039;49.500;10.418;2023-12-20T03:53:20;7.20;68.70
81630;DHT22;71039;49.500;10.418;2023-12-20T03:55:45;7.20;68.70
81630;DHT22;71039;49.500;10.418;2023-12-20T03:58:11;7.20;68.70
81630;DHT22;71039;49.500;10.418;2023-12-20T04:00:37;7.20;68.70
81630;DHT22;71039;49.500;10.418;2023-12-20T04:03:02;7.20;68.70
81630;DHT22;71039;49.500;10.418;2023-12-20T04:05:28;7.20;68.80
81630;DHT22;71039;49.500;10.418;2023-12-20T04:07:53;7.20;68.90
81630;DHT22;71039;49.500;10.418;2023-12-20T04:10:19;7.20;68.90
81630;DHT22;71039;49.500;10.418;2023-12-20T04:12:44;7.10;68.90
81630;DHT22;71039;49.500;10.418;2023-12-20T04:15:10;7.10;68.90
81630;DHT22;71039;49.500;10.418;2023-12-20T04:17:35;7.10;68.80
81630;DHT22;71039;49.500;10.418;2023-12-20T04:20:01;7.10;68.80
81630;DHT22;71039;49.500;10.418;2023-12-20T04:22:27;7.10;68.80
81630;DHT22;71039;49.500;10.418;2023-12-20T04:24:52;7.00;68.90
81630;DHT22;71039;49.500;10.418;2023-12-20T04:27:18;7.00;68.90
81630;DHT22;71039;49.500;10.418;2023-12-20T04:29:43;7.00;68.90
81630;DHT22;71039;49.500;10.418;2023-12-20T04:32:09;7.00;68.90
81630;DHT22;71039;49.500;10.418;2023-12-20T04:34:34;7.00;69.00
81630;DHT22;71039;49.500;10.418;2023-12-20T04:37:00;7.00;69.00
81630;DHT22;71039;49.500;10.418;2023-12-20T04:39:26;7.00;68.90
81630;DHT22;71039;49.500;10.418;2023-12-20T04:41:51;7.00;69.00
81630;DHT22;71039;49.500;10.418;2023-12-20T04:44:17;7.00;69.00
81630;DHT22;71039;49.500;10.418;2023-12-20T04:46:42;7.00;69.00
81630;DHT22;71039;49.500;10.418;2023-12-20T04:49:08;7.00;69.00
81630;DHT22;71039;49.500;10.418;2023-12-20T04:51:34;7.00;69.00
81630;DHT22;71039;49.500;10.418;2023-12-20T04:53:59;6.90;69.00
81630;DHT22;71039;49.500;10.418;2023-12-20T04:56:25;6.90;69.10
81630;DHT22;71039;49.500;10.418;2023-12-20T04:58:50;7.00;69.10
81630;DHT22;71039;49.500;10.418;2023-12-20T05:01:16;6.90;69.20
81630;DHT22;71039;49.500;10.418;2023-12-20T05:03:41;6.90;69.20
81630;DHT22;71039;49.500;10.418;2023-12-20T05:06:07;6.90;69.20
81630;DHT22;71039;49.500;10.418;2023-12-20T05:08:33;7.00;69.30
81630;DHT22;71039;49.500;10.418;2023-12-20T05:10:58;7.00;69.30
81630;DHT22;71039;49.500;10.418;2023-12-20T05:13:24;7.00;69.30
81630;DHT22;71039;49.500;10.418;2023-12-20T05:15:49;7.00;69.30
81630;DHT22;71039;49.500;10.418;2023-12-20T05:18:15;7.00;69.30
81630;DHT22;71039;49.500;10.418;2023-12-20T05:20:40;6.90;69.30
81630;DHT22;71039;49.500;10.418;2023-12-20T05:23:06;6.90;69.30
81630;DHT22;71039;49.500;10.418;2023-12-20T05:25:32;7.00;69.30
81630;DHT22;71039;49.500;10.418;2023-12-20T05:27:57;7.00;69.30
81630;DHT22;71039;49.500;10.418;2023-12-20T05:30:23;7.00;69.30
81630;DHT22;71039;49.500;10.418;2023-12-20T05:32:49;7.00;69.40
81630;DHT22;71039;49.500;10.418;2023-12-20T05:35:14;7.00;69.40
81630;DHT22;71039;49.500;10.418;2023-12-20T05:37:40;7.00;69.40
81630;DHT22;71039;49.500;10.418;2023-12-20T05:40:06;7.00;69.40
81630;DHT22;71039;49.500;10.418;2023-12-20T05:42:32;7.00;69.40
81630;DHT22;71039;49.500;10.418;2023-12-20T05:44:57;7.00;69.40
81630;DHT22;71039;49.500;10.418;2023-12-20T05:47:23;7.00;69.40
81630;DHT22;71039;49.500;10.418;2023-12-20T05:49:48;7.00;69.40
81630;DHT22;71039;49.500;10.418;2023-12-20T05:52:14;7.00;69.50
81630;DHT22;71039;49.500;10.418;2023-12-20T05:54:39;7.00;69.50
81630;DHT22;71039;49.500;10.418;2023-12-20T05:57:05;7.00;69.50
81630;DHT22;71039;49.500;10.418;2023-12-20T05:59:30;7.00;69.40
81630;DHT22;71039;49.500;10.418;2023-12-20T06:01:56;7.00;69.40
81630;DHT22;71039;49.500;10.418;2023-12-20T06:04:21;7.00;69.50
81630;DHT22;71039;49.500;10.418;2023-12-20T06:06:47;7.00;69.50
81630;DHT22;71039;49.500;10.418;2023-12-20T06:09:12;7.00;69.50
81630;DHT22;71039;49.500;10.418;2023-12-20T06:11:38;7.10;69.60
81630;DHT22;71039;49.500;10.418;2023-12-20T06:14:03;7.00;69.60
81630;DHT22;71039;49.500;10.418;2023-12-20T06:16:29;7.00;69.60
81630;DHT22;71039;49.500;10.418;2023-12-20T06:18:54;7.10;69.60
81630;DHT22;71039;49.500;10.418;2023-12-20T06:21:20;7.10;69.60
81630;DHT22;71039;49.500;10.418;2023-12-20T06:23:45;7.10;69.70
81630;DHT22;71039;49.500;10.418;2023-12-20T06:26:11;7.10;69.70
81630;DHT22;71039;49.500;10.418;2023-12-20T06:28:36;7.10;69.70
81630;DHT22;71039;49.500;10.418;2023-12-20T06:31:02;7.10;69.80
81630;DHT22;71039;49.500;10.418;2023-12-20T06:33:28;7.10;69.80
81630;DHT22;71039;49.500;10.418;2023-12-20T06:35:53;7.10;69.80
81630;DHT22;71039;49.500;10.418;2023-12-20T06:38:19;7.10;69.80
81630;DHT22;71039;49.500;10.418;2023-12-20T06:40:44;7.20;69.80
81630;DHT22;71039;49.500;10.418;2023-12-20T06:43:10;7.20;69.80
81630;DHT22;71039;49.500;10.418;2023-12-20T06:45:36;7.20;69.90
81630;DHT22;71039;49.500;10.418;2023-12-20T06:48:01;7.20;69.90
81630;DHT22;71039;49.500;10.418;2023-12-20T06:50:27;7.20;69.90
81630;DHT22;71039;49.500;10.418;2023-12-20T06:52:52;7.20;69.90
81630;DHT22;71039;49.500;10.418;2023-12-20T06:55:18;7.20;69.90
81630;DHT22;71039;49.500;10.418;2023-12-20T06:57:43;7.20;70.00
81630;DHT22;71039;49.500;10.418;2023-12-20T07:00:12;7.20;70.00
81630;DHT22;71039;49.500;10.418;2023-12-20T07:02:38;7.20;70.00
81630;DHT22;71039;49.500;10.418;2023-12-20T07:05:03;7.20;70.00
81630;DHT22;71039;49.500;10.418;2023-12-20T07:07:29;7.20;70.00
81630;DHT22;71039;49.500;10.418;2023-12-20T07:09:55;7.20;70.00
81630;DHT22;71039;49.500;10.418;2023-12-20T07:12:20;7.20;70.10
81630;DHT22;71039;49.500;10.418;2023-12-20T07:14:46;7.20;70.10
81630;DHT22;71039;49.500;10.418;2023-12-20T07:17:12;7.20;70.10
81630;DHT22;71039;49.500;10.418;2023-12-20T07:19:37;7.20;70.10
81630;DHT22;71039;49.500;10.418;2023-12-20T07:22:04;7.20;70.10
81630;DHT22;71039;49.500;10.418;2023-12-20T07:24:29;7.20;70.20
81630;DHT22;71039;49.500;10.418;2023-12-20T07:26:55;7.20;70.10
81630;DHT22;71039;49.500;10.418;2023-12-20T07:29:20;7.20;70.10
81630;DHT22;71039;49.500;10.418;2023-12-20T07:31:46;7.20;70.20
81630;DHT22;71039;49.500;10.418;2023-12-20T07:34:11;7.20;70.10
81630;DHT22;71039;49.500;10.418;2023-12-20T07:36:37;7.20;70.00
81630;DHT22;71039;49.500;10.418;2023-12-20T07:39:03;7.20;69.90
81630;DHT22;71039;49.500;10.418;2023-12-20T07:41:28;7.20;69.90
81630;DHT22;71039;49.500;10.418;2023-12-20T07:43:54;7.20;70.00
81630;DHT22;71039;49.500;10.418;2023-12-20T07:46:20;7.30;70.00
81630;DHT22;71039;49.500;10.418;2023-12-20T07:48:46;7.30;70.00
81630;DHT22;71039;49.500;10.418;2023-12-20T07:51:12;7.20;70.10
81630;DHT22;71039;49.500;10.418;2023-12-20T07:53:37;7.20;70.10
81630;DHT22;71039;49.500;10.418;2023-12-20T07:56:16;7.20;70.00
81630;DHT22;71039;49.500;10.418;2023-12-20T07:58:42;7.20;69.90
81630;DHT22;71039;49.500;10.418;2023-12-20T08:01:08;7.30;69.80
81630;DHT22;71039;49.500;10.418;2023-12-20T08:03:33;7.30;69.60
81630;DHT22;71039;49.500;10.418;2023-12-20T08:05:59;7.30;69.50
81630;DHT22;71039;49.500;10.418;2023-12-20T08:08:25;7.20;69.30
81630;DHT22;71039;49.500;10.418;2023-12-20T08:10:50;7.20;69.20
81630;DHT22;71039;49.500;10.418;2023-12-20T08:13:16;7.20;69.20
81630;DHT22;71039;49.500;10.418;2023-12-20T08:15:41;7.20;69.30
81630;DHT22;71039;49.500;10.418;2023-12-20T08:18:07;7.20;69.20
81630;DHT22;71039;49.500;10.418;2023-12-20T08:20:32;7.20;69.10
81630;DHT22;71039;49.500;10.418;2023-12-20T08:22:58;7.20;69.00
81630;DHT22;71039;49.500;10.418;2023-12-20T08:25:23;7.10;69.00
81630;DHT22;71039;49.500;10.418;2023-12-20T08:27:49;7.10;69.00
81630;DHT22;71039;49.500;10.418;2023-12-20T08:30:15;7.00;69.10
81630;DHT22;71039;49.500;10.418;2023-12-20T08:32:40;7.00;69.50
81630;DHT22;71039;49.500;10.418;2023-12-20T08:35:06;7.00;69.70
81630;DHT22;71039;49.500;10.418;2023-12-20T08:37:31;7.10;69.90
81630;DHT22;71039;49.500;10.418;2023-12-20T08:39:57;7.10;69.90
81630;DHT22;71039;49.500;10.418;2023-12-20T08:42:22;7.20;70.80
81630;DHT22;71039;49.500;10.418;2023-12-20T08:44:48;7.20;71.50
81630;DHT22;71039;49.500;10.418;2023-12-20T08:47:13;7.40;71.80
81630;DHT22;71039;49.500;10.418;2023-12-20T08:49:39;7.50;72.20
81630;DHT22;71039;49.500;10.418;2023-12-20T08:52:05;7.80;72.50
81630;DHT22;71039;49.500;10.418;2023-12-20T08:54:31;8.00;72.30
81630;DHT22;71039;49.500;10.418;2023-12-20T08:56:56;8.10;72.10
81630;DHT22;71039;49.500;10.418;2023-12-20T08:59:22;8.30;71.80
81630;DHT22;71039;49.500;10.418;2023-12-20T09:01:47;8.50;71.30
81630;DHT22;71039;49.500;10.418;2023-12-20T09:04:13;8.60;70.80
81630;DHT22;71039;49.500;10.418;2023-12-20T09:06:38;8.70;70.60
81630;DHT22;71039;49.500;10.418;2023-12-20T09:09:04;8.90;70.20
81630;DHT22;71039;49.500;10.418;2023-12-20T09:11:29;9.00;69.80
81630;DHT22;71039;49.500;10.418;2023-12-20T09:13:55;9.00;69.50
81630;DHT22;71039;49.500;10.418;2023-12-20T09:16:20;9.10;69.20
81630;DHT22;71039;49.500;10.418;2023-12-20T09:18:46;9.20;68.80
81630;DHT22;71039;49.500;10.418;2023-12-20T09:21:11;9.20;68.70
81630;DHT22;71039;49.500;10.418;2023-12-20T09:23:37;9.20;68.60
81630;DHT22;71039;49.500;10.418;2023-12-20T09:26:03;9.40;68.60
81630;DHT22;71039;49.500;10.418;2023-12-20T09:28:28;9.40;68.20
81630;DHT22;71039;49.500;10.418;2023-12-20T09:30:54;9.40;67.90
81630;DHT22;71039;49.500;10.418;2023-12-20T09:33:19;9.40;67.50
81630;DHT22;71039;49.500;10.418;2023-12-20T09:35:45;9.40;67.10
81630;DHT22;71039;49.500;10.418;2023-12-20T09:38:10;9.40;66.90
81630;DHT22;71039;49.500;10.418;2023-12-20T09:40:36;9.40;66.80
81630;DHT22;71039;49.500;10.418;2023-12-20T09:43:04;9.40;67.00
81630;DHT22;71039;49.500;10.418;2023-12-20T09:45:34;9.40;67.20
81630;DHT22;71039;49.500;10.418;2023-12-20T09:47:59;9.40;67.20
81630;DHT22;71039;49.500;10.418;2023-12-20T09:50:25;9.40;67.00
81630;DHT22;71039;49.500;10.418;2023-12-20T09:52:52;9.30;66.70
81630;DHT22;71039;49.500;10.418;2023-12-20T09:55:19;9.20;66.60
81630;DHT22;71039;49.500;10.418;2023-12-20T09:57:45;9.20;66.50
81630;DHT22;71039;49.500;10.418;2023-12-20T10:00:11;9.20;66.50
81630;DHT22;71039;49.500;10.418;2023-12-20T10:02:47;9.20;66.90
81630;DHT22;71039;49.500;10.418;2023-12-20T10:05:17;9.20;67.10
81630;DHT22;71039;49.500;10.418;2023-12-20T10:07:42;9.20;67.40
81630;DHT22;71039;49.500;10.418;2023-12-20T10:10:08;9.20;66.70
81630;DHT22;71039;49.500;10.418;2023-12-20T10:12:34;9.20;67.10
81630;DHT22;71039;49.500;10.418;2023-12-20T10:15:00;9.30;66.60
81630;DHT22;71039;49.500;10.418;2023-12-20T10:17:27;9.20;66.40
81630;DHT22;71039;49.500;10.418;2023-12-20T10:19:52;9.20;66.20
81630;DHT22;71039;49.500;10.418;2023-12-20T10:22:18;9.20;66.00
81630;DHT22;71039;49.500;10.418;2023-12-20T10:24:45;9.20;66.00
81630;DHT22;71039;49.500;10.418;2023-12-20T10:27:11;9.20;66.00
81630;DHT22;71039;49.500;10.418;2023-12-20T10:29:37;9.10;66.00
81630;DHT22;71039;49.500;10.418;2023-12-20T10:32:23;9.10;66.00
81630;DHT22;71039;49.500;10.418;2023-12-20T10:34:49;9.00;65.60
81630;DHT22;71039;49.500;10.418;2023-12-20T10:37:15;9.00;65.80
81630;DHT22;71039;49.500;10.418;2023-12-20T10:39:42;9.00;65.80
81630;DHT22;71039;49.500;10.418;2023-12-20T10:42:09;9.00;65.90
81630;DHT22;71039;49.500;10.418;2023-12-20T10:44:36;8.90;65.70
81630;DHT22;71039;49.500;10.418;2023-12-20T10:47:01;8.90;65.90
81630;DHT22;71039;49.500;10.418;2023-12-20T10:49:28;8.80;65.90
81630;DHT22;71039;49.500;10.418;2023-12-20T10:51:56;8.80;66.10
81630;DHT22;71039;49.500;10.418;2023-12-20T10:54:22;8.80;66.20
81630;DHT22;71039;49.500;10.418;2023-12-20T10:56:51;8.80;66.40
81630;DHT22;71039;49.500;10.418;2023-12-20T10:59:19;8.70;66.50
81630;DHT22;71039;49.500;10.418;2023-12-20T11:01:45;8.80;66.50
81630;DHT22;71039;49.500;10.418;2023-12-20T11:04:18;8.70;66.50
81630;DHT22;71039;49.500;10.418;2023-12-20T11:07:12;8.70;66.50
81630;DHT22;71039;49.500;10.418;2023-12-20T11:09:45;8.70;66.20
81630;DHT22;71039;49.500;10.418;2023-12-20T11:12:47;8.80;66.40
81630;DHT22;71039;49.500;10.418;2023-12-20T11:15:11;8.80;66.20
81630;DHT22;71039;49.500;10.418;2023-12-20T11:17:39;8.70;66.40
81630;DHT22;71039;49.500;10.418;2023-12-20T11:20:07;8.80;66.40
81630;DHT22;71039;49.500;10.418;2023-12-20T11:22:34;8.70;66.40
81630;DHT22;71039;49.500;10.418;2023-12-20T11:25:10;8.70;66.40
81630;DHT22;71039;49.500;10.418;2023-12-20T11:27:37;8.70;66.30
81630;DHT22;71039;49.500;10.418;2023-12-20T11:30:06;8.70;66.40
81630;DHT22;71039;49.500;10.418;2023-12-20T11:32:33;8.70;66.40
81630;DHT22;71039;49.500;10.418;2023-12-20T11:37:45;8.60;66.20
81630;DHT22;71039;49.500;10.418;2023-12-20T11:40:16;8.70;66.20
81630;DHT22;71039;49.500;10.418;2023-12-20T11:42:48;8.70;66.60
81630;DHT22;71039;49.500;10.418;2023-12-20T11:45:15;8.70;66.50
81630;DHT22;71039;49.500;10.418;2023-12-20T11:47:43;8.70;66.40
81630;DHT22;71039;49.500;10.418;2023-12-20T11:50:10;8.80;66.40
81630;DHT22;71039;49.500;10.418;2023-12-20T11:52:36;8.80;66.40
81630;DHT22;71039;49.500;10.418;2023-12-20T11:55:01;8.80;66.40
81630;DHT22;71039;49.500;10.418;2023-12-20T11:57:28;8.80;66.40
81630;DHT22;71039;49.500;10.418;2023-12-20T11:59:54;8.80;66.50
81630;DHT22;71039;49.500;10.418;2023-12-20T12:02:19;8.80;66.60
81630;DHT22;71039;49.500;10.418;2023-12-20T12:04:45;8.80;66.50
81630;DHT22;71039;49.500;10.418;2023-12-20T12:07:11;8.80;66.30
81630;DHT22;71039;49.500;10.418;2023-12-20T12:09:36;8.90;66.20
81630;DHT22;71039;49.500;10.418;2023-12-20T12:12:02;8.80;66.20
81630;DHT22;71039;49.500;10.418;2023-12-20T12:14:28;8.90;66.20
81630;DHT22;71039;49.500;10.418;2023-12-20T12:16:53;8.90;66.20
81630;DHT22;71039;49.500;10.418;2023-12-20T12:19:23;8.90;66.20
81630;DHT22;71039;49.500;10.418;2023-12-20T12:21:49;8.90;66.20
81630;DHT22;71039;49.500;10.418;2023-12-20T12:24:16;8.90;66.20
81630;DHT22;71039;49.500;10.418;2023-12-20T12:26:50;8.90;66.00
81630;DHT22;71039;49.500;10.418;2023-12-20T12:29:15;8.90;65.90
81630;DHT22;71039;49.500;10.418;2023-12-20T12:31:41;9.00;65.70
81630;DHT22;71039;49.500;10.418;2023-12-20T12:34:06;8.90;65.60
81630;DHT22;71039;49.500;10.418;2023-12-20T12:36:32;8.90;65.50
81630;DHT22;71039;49.500;10.418;2023-12-20T12:38:58;8.90;65.50
81630;DHT22;71039;49.500;10.418;2023-12-20T12:41:23;8.90;65.50
81630;DHT22;71039;49.500;10.418;2023-12-20T12:43:49;8.90;65.50
81630;DHT22;71039;49.500;10.418;2023-12-20T12:46:14;8.80;65.50
81630;DHT22;71039;49.500;10.418;2023-12-20T12:48:40;8.80;65.60
81630;DHT22;71039;49.500;10.418;2023-12-20T12:51:05;8.80;65.60
81630;DHT22;71039;49.500;10.418;2023-12-20T12:53:31;8.80;65.50
81630;DHT22;71039;49.500;10.418;2023-12-20T12:55:56;8.80;65.40
81630;DHT22;71039;49.500;10.418;2023-12-20T12:58:22;8.80;65.40
81630;DHT22;71039;49.500;10.418;2023-12-20T13:00:48;8.80;65.30
81630;DHT22;71039;49.500;10.418;2023-12-20T13:03:13;8.70;65.20
81630;DHT22;71039;49.500;10.418;2023-12-20T13:05:39;8.70;65.30
81630;DHT22;71039;49.500;10.418;2023-12-20T13:08:04;8.70;65.20
81630;DHT22;71039;49.500;10.418;2023-12-20T13:10:30;8.60;65.20
81630;DHT22;71039;49.500;10.418;2023-12-20T13:12:56;8.60;65.20
81630;DHT22;71039;49.500;10.418;2023-12-20T13:15:21;8.60;65.20
81630;DHT22;71039;49.500;10.418;2023-12-20T13:17:47;8.60;65.20
81630;DHT22;71039;49.500;10.418;2023-12-20T13:20:12;8.60;65.20
81630;DHT22;71039;49.500;10.418;2023-12-20T13:22:38;8.50;65.20
81630;DHT22;71039;49.500;10.418;2023-12-20T13:25:03;8.50;65.20
81630;DHT22;71039;49.500;10.418;2023-12-20T13:27:29;8.50;65.20
81630;DHT22;71039;49.500;10.418;2023-12-20T13:29:55;8.50;65.20
81630;DHT22;71039;49.500;10.418;2023-12-20T13:32:20;8.50;65.20
81630;DHT22;71039;49.500;10.418;2023-12-20T13:34:46;8.40;65.10
81630;DHT22;71039;49.500;10.418;2023-12-20T13:37:11;8.50;65.20
81630;DHT22;71039;49.500;10.418;2023-12-20T13:39:37;8.40;65.10
81630;DHT22;71039;49.500;10.418;2023-12-20T13:42:02;8.40;65.10
81630;DHT22;71039;49.500;10.418;2023-12-20T13:44:28;8.40;65.10
81630;DHT22;71039;49.500;10.418;2023-12-20T13:46:53;8.40;65.00
81630;DHT22;71039;49.500;10.418;2023-12-20T13:49:19;8.40;65.00
81630;DHT22;71039;49.500;10.418;2023-12-20T13:51:44;8.40;65.00
81630;DHT22;71039;49.500;10.418;2023-12-20T13:54:10;8.30;65.00
81630;DHT22;71039;49.500;10.418;2023-12-20T13:56:35;8.30;65.00
81630;DHT22;71039;49.500;10.418;2023-12-20T13:59:01;8.30;65.00
81630;DHT22;71039;49.500;10.418;2023-12-20T14:01:26;8.30;65.00
81630;DHT22;71039;49.500;10.418;2023-12-20T14:03:52;8.20;65.10
81630;DHT22;71039;49.500;10.418;2023-12-20T14:06:17;8.20;65.20
81630;DHT22;71039;49.500;10.418;2023-12-20T14:08:43;8.10;65.20
81630;DHT22;71039;49.500;10.418;2023-12-20T14:11:09;8.10;65.20
81630;DHT22;71039;49.500;10.418;2023-12-20T14:13:34;8.10;65.30
81630;DHT22;71039;49.500;10.418;2023-12-20T14:16:00;8.10;65.30
81630;DHT22;71039;49.500;10.418;2023-12-20T14:18:25;8.10;65.30
81630;DHT22;71039;49.500;10.418;2023-12-20T14:20:51;8.00;65.40
81630;DHT22;71039;49.500;10.418;2023-12-20T14:23:16;8.00;65.40
81630;DHT22;71039;49.500;10.418;2023-12-20T14:25:42;8.00;65.50
81630;DHT22;71039;49.500;10.418;2023-12-20T14:28:08;8.00;65.50
81630;DHT22;71039;49.500;10.418;2023-12-20T14:30:33;8.00;65.50
81630;DHT22;71039;49.500;10.418;2023-12-20T14:32:59;8.00;65.60
81630;DHT22;71039;49.500;10.418;2023-12-20T14:35:24;8.00;65.60
81630;DHT22;71039;49.500;10.418;2023-12-20T14:37:50;8.00;65.60
81630;DHT22;71039;49.500;10.418;2023-12-20T14:40:16;8.00;65.60
81630;DHT22;71039;49.500;10.418;2023-12-20T14:42:44;7.90;65.60
81630;DHT22;71039;49.500;10.418;2023-12-20T14:45:11;7.80;65.60
81630;DHT22;71039;49.500;10.418;2023-12-20T14:47:36;7.80;65.70
81630;DHT22;71039;49.500;10.418;2023-12-20T14:50:06;7.80;65.70
81630;DHT22;71039;49.500;10.418;2023-12-20T14:52:32;7.80;65.70
81630;DHT22;71039;49.500;10.418;2023-12-20T14:54:58;7.80;65.70
81630;DHT22;71039;49.500;10.418;2023-12-20T14:57:24;7.80;65.70
81630;DHT22;71039;49.500;10.418;2023-12-20T14:59:49;7.80;65.70
81630;DHT22;71039;49.500;10.418;2023-12-20T15:02:15;7.80;65.70
81630;DHT22;71039;49.500;10.418;2023-12-20T15:04:40;7.70;65.70
81630;DHT22;71039;49.500;10.418;2023-12-20T15:07:06;7.70;65.70
81630;DHT22;71039;49.500;10.418;2023-12-20T15:09:32;7.70;65.70
81630;DHT22;71039;49.500;10.418;2023-12-20T15:11:57;7.60;65.70
81630;DHT22;71039;49.500;10.418;2023-12-20T15:14:23;7.60;65.70
81630;DHT22;71039;49.500;10.418;2023-12-20T15:16:48;7.60;65.70
81630;DHT22;71039;49.500;10.418;2023-12-20T15:19:14;7.60;65.70
81630;DHT22;71039;49.500;10.418;2023-12-20T15:21:40;7.50;65.70
81630;DHT22;71039;49.500;10.418;2023-12-20T15:24:06;7.50;65.70